sensor_id;sensor_type;location;lat;lon;timestamp;P1;durP1;ratioP1;P2;durP2;ratioP2
29432;SDS011;16405;53.964;13.448;2023-05-07T00:02:23;19.15;;;6.18;;
29432;SDS011;16405;53.964;13.448;2023-05-07T00:04:50;17.65;;;5.95;;
29432;SDS011;16405;53.964;13.448;2023-05-07T00:07:16;14.10;;;6.13;;
29432;SDS011;16405;53.964;13.448;2023-05-07T00:09:45;23.48;;;6.90;;
29432;SDS011;16405;53.964;13.448;2023-05-07T00:12:11;22.60;;;6.03;;
29432;SDS011;16405;53.964;13.448;2023-05-07T00:14:37;16.25;;;6.22;;
29432;SDS011;16405;53.964;13.448;2023-05-07T00:17:03;16.17;;;6.05;;
29432;SDS011;16405;53.964;13.448;2023-05-07T00:19:29;19.30;;;6.75;;
29432;SDS011;16405;53.964;13.448;2023-05-07T00:21:54;18.45;;;6.10;;
29432;SDS011;16405;53.964;13.448;2023-05-07T00:24:21;16.80;;;5.93;;
29432;SDS011;16405;53.964;13.448;2023-05-07T00:26:50;14.85;;;6.50;;
29432;SDS011;16405;53.964;13.448;2023-05-07T00:29:17;20.73;;;6.72;;
29432;SDS011;16405;53.964;13.448;2023-05-07T00:31:43;20.45;;;5.90;;
29432;SDS011;16405;53.964;13.448;2023-05-07T00:34:09;14.98;;;6.32;;
29432;SDS011;16405;53.964;13.448;2023-05-07T00:36:35;17.27;;;6.72;;
29432;SDS011;16405;53.964;13.448;2023-05-07T00:39:01;16.58;;;6.57;;
29432;SDS011;16405;53.964;13.448;2023-05-07T00:41:28;19.55;;;6.80;;
29432;SDS011;16405;53.964;13.448;2023-05-07T00:43:56;16.35;;;6.15;;
29432;SDS011;16405;53.964;13.448;2023-05-07T00:46:22;19.42;;;6.18;;
29432;SDS011;16405;53.964;13.448;2023-05-07T00:48:51;17.98;;;6.32;;
29432;SDS011;16405;53.964;13.448;2023-05-07T00:51:18;15.00;;;5.82;;
29432;SDS011;16405;53.964;13.448;2023-05-07T00:53:48;23.17;;;6.55;;
29432;SDS011;16405;53.964;13.448;2023-05-07T00:56:14;16.02;;;6.22;;
29432;SDS011;16405;53.964;13.448;2023-05-07T00:58:40;13.35;;;5.93;;
29432;SDS011;16405;53.964;13.448;2023-05-07T01:01:07;17.33;;;5.43;;
29432;SDS011;16405;53.964;13.448;2023-05-07T01:03:33;19.58;;;6.72;;
29432;SDS011;16405;53.964;13.448;2023-05-07T01:06:01;18.00;;;5.97;;
29432;SDS011;16405;53.964;13.448;2023-05-07T01:08:28;17.20;;;6.32;;
29432;SDS011;16405;53.964;13.448;2023-05-07T01:10:56;17.52;;;5.57;;
29432;SDS011;16405;53.964;13.448;2023-05-07T01:13:22;14.10;;;5.55;;
29432;SDS011;16405;53.964;13.448;2023-05-07T01:15:49;15.60;;;5.70;;
29432;SDS011;16405;53.964;13.448;2023-05-07T01:18:15;17.20;;;5.85;;
29432;SDS011;16405;53.964;13.448;2023-05-07T01:20:41;23.10;;;6.72;;
29432;SDS011;16405;53.964;13.448;2023-05-07T01:23:10;17.05;;;6.00;;
29432;SDS011;16405;53.964;13.448;2023-05-07T01:25:37;18.08;;;6.30;;
29432;SDS011;16405;53.964;13.448;2023-05-07T01:28:03;14.00;;;5.40;;
29432;SDS011;16405;53.964;13.448;2023-05-07T01:30:29;18.70;;;6.03;;
29432;SDS011;16405;53.964;13.448;2023-05-07T01:35:37;18.73;;;6.53;;
29432;SDS011;16405;53.964;13.448;2023-05-07T01:38:10;12.82;;;6.35;;
29432;SDS011;16405;53.964;13.448;2023-05-07T01:40:37;15.57;;;5.82;;
29432;SDS011;16405;53.964;13.448;2023-05-07T01:43:03;17.95;;;6.18;;
29432;SDS011;16405;53.964;13.448;2023-05-07T01:45:30;16.63;;;6.80;;
29432;SDS011;16405;53.964;13.448;2023-05-07T01:47:57;21.55;;;6.15;;
29432;SDS011;16405;53.964;13.448;2023-05-07T01:50:24;17.25;;;7.03;;
29432;SDS011;16405;53.964;13.448;2023-05-07T01:52:51;14.05;;;6.22;;
29432;SDS011;16405;53.964;13.448;2023-05-07T01:55:17;24.08;;;6.20;;
29432;SDS011;16405;53.964;13.448;2023-05-07T01:57:46;18.35;;;7.10;;
29432;SDS011;16405;53.964;13.448;2023-05-07T02:00:12;16.23;;;6.70;;
29432;SDS011;16405;53.964;13.448;2023-05-07T02:02:38;18.05;;;6.28;;
29432;SDS011;16405;53.964;13.448;2023-05-07T02:05:04;17.88;;;7.22;;
29432;SDS011;16405;53.964;13.448;2023-05-07T02:07:31;17.98;;;6.10;;
29432;SDS011;16405;53.964;13.448;2023-05-07T02:09:56;24.35;;;6.80;;
29432;SDS011;16405;53.964;13.448;2023-05-07T02:12:22;16.95;;;6.57;;
29432;SDS011;16405;53.964;13.448;2023-05-07T02:14:54;15.63;;;6.05;;
29432;SDS011;16405;53.964;13.448;2023-05-07T02:17:19;21.10;;;6.50;;
29432;SDS011;16405;53.964;13.448;2023-05-07T02:19:45;19.30;;;5.88;;
29432;SDS011;16405;53.964;13.448;2023-05-07T02:22:11;26.48;;;6.10;;
29432;SDS011;16405;53.964;13.448;2023-05-07T02:24:37;18.08;;;6.30;;
29432;SDS011;16405;53.964;13.448;2023-05-07T02:27:02;20.80;;;6.70;;
29432;SDS011;16405;53.964;13.448;2023-05-07T02:29:30;14.02;;;6.10;;
29432;SDS011;16405;53.964;13.448;2023-05-07T02:31:56;24.02;;;7.07;;
29432;SDS011;16405;53.964;13.448;2023-05-07T02:34:22;14.85;;;5.90;;
29432;SDS011;16405;53.964;13.448;2023-05-07T02:36:48;25.00;;;7.13;;
29432;SDS011;16405;53.964;13.448;2023-05-07T02:39:13;20.98;;;6.55;;
29432;SDS011;16405;53.964;13.448;2023-05-07T02:41:40;21.30;;;6.57;;
29432;SDS011;16405;53.964;13.448;2023-05-07T02:44:07;15.30;;;5.60;;
29432;SDS011;16405;53.964;13.448;2023-05-07T02:46:40;15.98;;;6.32;;
29432;SDS011;16405;53.964;13.448;2023-05-07T02:49:06;22.83;;;6.72;;
29432;SDS011;16405;53.964;13.448;2023-05-07T02:51:32;21.65;;;6.65;;
29432;SDS011;16405;53.964;13.448;2023-05-07T02:53:57;24.85;;;7.47;;
29432;SDS011;16405;53.964;13.448;2023-05-07T02:56:30;22.55;;;7.25;;
29432;SDS011;16405;53.964;13.448;2023-05-07T02:58:56;17.17;;;6.65;;
29432;SDS011;16405;53.964;13.448;2023-05-07T03:01:22;22.48;;;7.15;;
29432;SDS011;16405;53.964;13.448;2023-05-07T03:03:48;14.07;;;6.60;;
29432;SDS011;16405;53.964;13.448;2023-05-07T03:06:14;24.77;;;7.50;;
29432;SDS011;16405;53.964;13.448;2023-05-07T03:08:40;17.13;;;6.93;;
29432;SDS011;16405;53.964;13.448;2023-05-07T03:11:09;22.17;;;6.78;;
29432;SDS011;16405;53.964;13.448;2023-05-07T03:13:34;24.85;;;7.68;;
29432;SDS011;16405;53.964;13.448;2023-05-07T03:16:00;20.30;;;7.13;;
29432;SDS011;16405;53.964;13.448;2023-05-07T03:18:26;17.42;;;6.78;;
29432;SDS011;16405;53.964;13.448;2023-05-07T03:20:52;22.00;;;7.28;;
29432;SDS011;16405;53.964;13.448;2023-05-07T03:23:17;14.75;;;6.30;;
29432;SDS011;16405;53.964;13.448;2023-05-07T03:25:46;14.45;;;6.68;;
29432;SDS011;16405;53.964;13.448;2023-05-07T03:28:14;17.17;;;7.18;;
29432;SDS011;16405;53.964;13.448;2023-05-07T03:30:40;17.45;;;7.18;;
29432;SDS011;16405;53.964;13.448;2023-05-07T03:33:06;20.30;;;6.65;;
29432;SDS011;16405;53.964;13.448;2023-05-07T03:35:31;21.25;;;7.05;;
29432;SDS011;16405;53.964;13.448;2023-05-07T03:37:57;19.45;;;6.35;;
29432;SDS011;16405;53.964;13.448;2023-05-07T03:40:26;17.27;;;6.90;;
29432;SDS011;16405;53.964;13.448;2023-05-07T03:42:52;16.55;;;6.68;;
29432;SDS011;16405;53.964;13.448;2023-05-07T03:45:18;18.25;;;7.57;;
29432;SDS011;16405;53.964;13.448;2023-05-07T03:47:45;21.63;;;7.28;;
29432;SDS011;16405;53.964;13.448;2023-05-07T03:50:10;14.15;;;6.40;;
29432;SDS011;16405;53.964;13.448;2023-05-07T03:52:36;24.13;;;6.97;;
29432;SDS011;16405;53.964;13.448;2023-05-07T03:55:02;17.92;;;8.05;;
29432;SDS011;16405;53.964;13.448;2023-05-07T03:57:28;17.98;;;7.60;;
29432;SDS011;16405;53.964;13.448;2023-05-07T03:59:56;22.23;;;7.03;;
29432;SDS011;16405;53.964;13.448;2023-05-07T04:02:22;14.02;;;6.47;;
29432;SDS011;16405;53.964;13.448;2023-05-07T04:04:48;14.15;;;6.50;;
29432;SDS011;16405;53.964;13.448;2023-05-07T04:07:14;19.30;;;6.78;;
29432;SDS011;16405;53.964;13.448;2023-05-07T04:09:40;11.63;;;5.55;;
29432;SDS011;16405;53.964;13.448;2023-05-07T04:12:06;17.55;;;5.90;;
29432;SDS011;16405;53.964;13.448;2023-05-07T04:14:32;22.63;;;5.18;;
29432;SDS011;16405;53.964;13.448;2023-05-07T04:16:58;13.85;;;5.38;;
29432;SDS011;16405;53.964;13.448;2023-05-07T04:19:24;12.93;;;5.15;;
29432;SDS011;16405;53.964;13.448;2023-05-07T04:21:50;10.15;;;4.93;;
29432;SDS011;16405;53.964;13.448;2023-05-07T04:24:16;12.20;;;5.10;;
29432;SDS011;16405;53.964;13.448;2023-05-07T04:26:43;11.80;;;5.63;;
29432;SDS011;16405;53.964;13.448;2023-05-07T04:29:09;9.00;;;4.38;;
29432;SDS011;16405;53.964;13.448;2023-05-07T04:31:34;9.18;;;5.30;;
29432;SDS011;16405;53.964;13.448;2023-05-07T04:34:00;12.30;;;5.20;;
29432;SDS011;16405;53.964;13.448;2023-05-07T04:36:26;15.63;;;6.35;;
29432;SDS011;16405;53.964;13.448;2023-05-07T04:38:52;12.60;;;5.63;;
29432;SDS011;16405;53.964;13.448;2023-05-07T04:41:18;13.40;;;5.95;;
29432;SDS011;16405;53.964;13.448;2023-05-07T04:43:45;15.50;;;5.68;;
29432;SDS011;16405;53.964;13.448;2023-05-07T04:46:11;11.95;;;5.60;;
29432;SDS011;16405;53.964;13.448;2023-05-07T04:48:37;10.10;;;5.70;;
29432;SDS011;16405;53.964;13.448;2023-05-07T04:51:02;14.13;;;6.68;;
29432;SDS011;16405;53.964;13.448;2023-05-07T04:53:31;13.98;;;5.90;;
29432;SDS011;16405;53.964;13.448;2023-05-07T04:55:57;10.20;;;5.88;;
29432;SDS011;16405;53.964;13.448;2023-05-07T04:58:23;13.52;;;5.90;;
29432;SDS011;16405;53.964;13.448;2023-05-07T05:00:49;14.50;;;5.63;;
29432;SDS011;16405;53.964;13.448;2023-05-07T05:03:15;14.48;;;6.43;;
29432;SDS011;16405;53.964;13.448;2023-05-07T05:05:41;14.77;;;6.13;;
29432;SDS011;16405;53.964;13.448;2023-05-07T05:08:09;13.35;;;6.25;;
29432;SDS011;16405;53.964;13.448;2023-05-07T05:10:35;10.43;;;5.25;;
29432;SDS011;16405;53.964;13.448;2023-05-07T05:13:01;18.42;;;5.93;;
29432;SDS011;16405;53.964;13.448;2023-05-07T05:15:27;10.07;;;5.75;;
29432;SDS011;16405;53.964;13.448;2023-05-07T05:17:53;13.18;;;6.00;;
29432;SDS011;16405;53.964;13.448;2023-05-07T05:20:19;13.55;;;5.80;;
29432;SDS011;16405;53.964;13.448;2023-05-07T05:22:45;14.90;;;6.03;;
29432;SDS011;16405;53.964;13.448;2023-05-07T05:25:16;12.20;;;5.63;;
29432;SDS011;16405;53.964;13.448;2023-05-07T05:27:42;11.85;;;5.65;;
29432;SDS011;16405;53.964;13.448;2023-05-07T05:30:07;13.32;;;5.75;;
29432;SDS011;16405;53.964;13.448;2023-05-07T05:32:34;12.48;;;5.43;;
29432;SDS011;16405;53.964;13.448;2023-05-07T05:35:00;14.18;;;6.22;;
29432;SDS011;16405;53.964;13.448;2023-05-07T05:37:26;11.73;;;5.45;;
29432;SDS011;16405;53.964;13.448;2023-05-07T05:39:56;14.73;;;6.13;;
29432;SDS011;16405;53.964;13.448;2023-05-07T05:42:23;12.05;;;6.18;;
29432;SDS011;16405;53.964;13.448;2023-05-07T05:44:48;13.40;;;5.93;;
29432;SDS011;16405;53.964;13.448;2023-05-07T05:47:14;12.70;;;6.22;;
29432;SDS011;16405;53.964;13.448;2023-05-07T05:49:40;14.88;;;6.03;;
29432;SDS011;16405;53.964;13.448;2023-05-07T05:52:08;13.68;;;5.68;;
29432;SDS011;16405;53.964;13.448;2023-05-07T05:54:36;11.55;;;5.78;;
29432;SDS011;16405;53.964;13.448;2023-05-07T05:57:02;16.60;;;5.88;;
29432;SDS011;16405;53.964;13.448;2023-05-07T05:59:29;11.88;;;5.82;;
29432;SDS011;16405;53.964;13.448;2023-05-07T06:01:55;9.98;;;5.13;;
29432;SDS011;16405;53.964;13.448;2023-05-07T06:04:21;15.23;;;6.78;;
29432;SDS011;16405;53.964;13.448;2023-05-07T06:09:15;10.57;;;5.25;;
29432;SDS011;16405;53.964;13.448;2023-05-07T06:11:41;11.43;;;4.88;;
29432;SDS011;16405;53.964;13.448;2023-05-07T06:16:32;11.48;;;5.32;;
29432;SDS011;16405;53.964;13.448;2023-05-07T06:18:58;16.20;;;5.68;;
29432;SDS011;16405;53.964;13.448;2023-05-07T06:21:24;12.55;;;5.53;;
29432;SDS011;16405;53.964;13.448;2023-05-07T06:26:20;10.68;;;5.80;;
29432;SDS011;16405;53.964;13.448;2023-05-07T06:28:46;12.55;;;5.05;;
29432;SDS011;16405;53.964;13.448;2023-05-07T06:31:13;12.15;;;5.20;;
29432;SDS011;16405;53.964;13.448;2023-05-07T06:33:46;13.38;;;4.93;;
29432;SDS011;16405;53.964;13.448;2023-05-07T06:36:13;9.98;;;4.93;;
29432;SDS011;16405;53.964;13.448;2023-05-07T06:38:39;10.05;;;4.55;;
29432;SDS011;16405;53.964;13.448;2023-05-07T06:41:05;12.05;;;4.95;;
29432;SDS011;16405;53.964;13.448;2023-05-07T06:43:32;10.68;;;4.95;;
29432;SDS011;16405;53.964;13.448;2023-05-07T06:45:58;7.28;;;4.32;;
29432;SDS011;16405;53.964;13.448;2023-05-07T06:48:28;11.95;;;4.90;;
29432;SDS011;16405;53.964;13.448;2023-05-07T06:50:54;11.65;;;4.65;;
29432;SDS011;16405;53.964;13.448;2023-05-07T06:53:23;8.55;;;4.15;;
29432;SDS011;16405;53.964;13.448;2023-05-07T06:55:50;13.23;;;4.75;;
29432;SDS011;16405;53.964;13.448;2023-05-07T06:58:19;8.85;;;4.18;;
29432;SDS011;16405;53.964;13.448;2023-05-07T07:00:44;7.63;;;4.10;;
29432;SDS011;16405;53.964;13.448;2023-05-07T07:03:10;8.05;;;3.90;;
29432;SDS011;16405;53.964;13.448;2023-05-07T07:05:36;11.88;;;4.20;;
29432;SDS011;16405;53.964;13.448;2023-05-07T07:08:02;11.73;;;4.10;;
29432;SDS011;16405;53.964;13.448;2023-05-07T07:10:28;7.78;;;3.88;;
29432;SDS011;16405;53.964;13.448;2023-05-07T07:12:54;7.88;;;3.78;;
29432;SDS011;16405;53.964;13.448;2023-05-07T07:17:45;8.48;;;3.83;;
29432;SDS011;16405;53.964;13.448;2023-05-07T07:20:12;8.18;;;3.38;;
29432;SDS011;16405;53.964;13.448;2023-05-07T07:22:38;9.10;;;4.13;;
29432;SDS011;16405;53.964;13.448;2023-05-07T07:25:04;7.15;;;3.50;;
29432;SDS011;16405;53.964;13.448;2023-05-07T07:27:30;10.40;;;3.85;;
29432;SDS011;16405;53.964;13.448;2023-05-07T07:29:56;9.25;;;3.75;;
29432;SDS011;16405;53.964;13.448;2023-05-07T07:32:22;10.60;;;4.00;;
29432;SDS011;16405;53.964;13.448;2023-05-07T07:34:48;6.50;;;3.50;;
29432;SDS011;16405;53.964;13.448;2023-05-07T07:37:16;9.88;;;3.78;;
29432;SDS011;16405;53.964;13.448;2023-05-07T07:39:42;10.32;;;3.53;;
29432;SDS011;16405;53.964;13.448;2023-05-07T07:42:08;11.63;;;4.18;;
29432;SDS011;16405;53.964;13.448;2023-05-07T07:44:34;9.40;;;3.13;;
29432;SDS011;16405;53.964;13.448;2023-05-07T07:46:59;7.32;;;3.75;;
29432;SDS011;16405;53.964;13.448;2023-05-07T07:49:26;11.55;;;3.58;;
29432;SDS011;16405;53.964;13.448;2023-05-07T07:51:59;7.10;;;3.42;;
29432;SDS011;16405;53.964;13.448;2023-05-07T07:54:25;12.98;;;4.47;;
29432;SDS011;16405;53.964;13.448;2023-05-07T07:56:51;9.30;;;3.45;;
29432;SDS011;16405;53.964;13.448;2023-05-07T07:59:17;10.40;;;3.67;;
29432;SDS011;16405;53.964;13.448;2023-05-07T08:01:52;12.15;;;3.35;;
29432;SDS011;16405;53.964;13.448;2023-05-07T08:04:20;7.95;;;3.80;;
29432;SDS011;16405;53.964;13.448;2023-05-07T08:06:49;7.05;;;3.35;;
29432;SDS011;16405;53.964;13.448;2023-05-07T08:09:15;10.68;;;3.88;;
29432;SDS011;16405;53.964;13.448;2023-05-07T08:11:41;12.68;;;3.45;;
29432;SDS011;16405;53.964;13.448;2023-05-07T08:14:07;10.70;;;3.70;;
29432;SDS011;16405;53.964;13.448;2023-05-07T08:16:33;11.77;;;3.97;;
29432;SDS011;16405;53.964;13.448;2023-05-07T08:18:58;10.27;;;4.00;;
29432;SDS011;16405;53.964;13.448;2023-05-07T08:21:24;12.27;;;3.80;;
29432;SDS011;16405;53.964;13.448;2023-05-07T08:23:51;8.68;;;3.85;;
29432;SDS011;16405;53.964;13.448;2023-05-07T08:26:24;7.22;;;3.58;;
29432;SDS011;16405;53.964;13.448;2023-05-07T08:28:50;12.88;;;3.80;;
29432;SDS011;16405;53.964;13.448;2023-05-07T08:31:15;7.30;;;4.13;;
29432;SDS011;16405;53.964;13.448;2023-05-07T08:36:07;7.35;;;4.00;;
29432;SDS011;16405;53.964;13.448;2023-05-07T08:38:40;12.35;;;4.10;;
29432;SDS011;16405;53.964;13.448;2023-05-07T08:41:09;7.93;;;3.90;;
29432;SDS011;16405;53.964;13.448;2023-05-07T08:43:46;7.97;;;3.72;;
29432;SDS011;16405;53.964;13.448;2023-05-07T08:46:18;9.68;;;3.83;;
29432;SDS011;16405;53.964;13.448;2023-05-07T08:48:50;6.47;;;4.25;;
29432;SDS011;16405;53.964;13.448;2023-05-07T08:51:18;10.18;;;3.88;;
29432;SDS011;16405;53.964;13.448;2023-05-07T08:53:52;8.63;;;4.10;;
29432;SDS011;16405;53.964;13.448;2023-05-07T08:56:18;6.50;;;3.97;;
29432;SDS011;16405;53.964;13.448;2023-05-07T08:58:47;14.05;;;4.55;;
29432;SDS011;16405;53.964;13.448;2023-05-07T09:01:16;12.27;;;4.28;;
29432;SDS011;16405;53.964;13.448;2023-05-07T09:03:46;10.85;;;3.80;;
29432;SDS011;16405;53.964;13.448;2023-05-07T09:06:12;2.70;;;1.98;;
29432;SDS011;16405;53.964;13.448;2023-05-07T09:08:38;8.85;;;3.10;;
29432;SDS011;16405;53.964;13.448;2023-05-07T09:11:13;8.70;;;3.65;;
29432;SDS011;16405;53.964;13.448;2023-05-07T09:13:39;12.23;;;4.15;;
29432;SDS011;16405;53.964;13.448;2023-05-07T09:16:12;7.68;;;3.70;;
29432;SDS011;16405;53.964;13.448;2023-05-07T09:18:42;7.72;;;3.78;;
29432;SDS011;16405;53.964;13.448;2023-05-07T09:21:16;9.38;;;3.63;;
29432;SDS011;16405;53.964;13.448;2023-05-07T09:23:50;10.35;;;3.80;;
29432;SDS011;16405;53.964;13.448;2023-05-07T09:26:20;9.85;;;3.88;;
29432;SDS011;16405;53.964;13.448;2023-05-07T09:28:47;7.70;;;3.80;;
29432;SDS011;16405;53.964;13.448;2023-05-07T09:31:17;8.23;;;3.70;;
29432;SDS011;16405;53.964;13.448;2023-05-07T09:33:49;8.20;;;4.10;;
29432;SDS011;16405;53.964;13.448;2023-05-07T09:36:15;9.45;;;4.30;;
29432;SDS011;16405;53.964;13.448;2023-05-07T09:38:45;7.90;;;4.45;;
29432;SDS011;16405;53.964;13.448;2023-05-07T09:41:14;6.90;;;3.70;;
29432;SDS011;16405;53.964;13.448;2023-05-07T09:43:40;6.93;;;3.85;;
29432;SDS011;16405;53.964;13.448;2023-05-07T09:46:13;8.63;;;4.15;;
29432;SDS011;16405;53.964;13.448;2023-05-07T09:48:43;14.73;;;4.22;;
29432;SDS011;16405;53.964;13.448;2023-05-07T09:53:54;8.93;;;4.30;;
29432;SDS011;16405;53.964;13.448;2023-05-07T09:56:31;11.23;;;4.15;;
29432;SDS011;16405;53.964;13.448;2023-05-07T09:59:00;7.18;;;4.10;;
29432;SDS011;16405;53.964;13.448;2023-05-07T10:01:28;4.22;;;2.42;;
29432;SDS011;16405;53.964;13.448;2023-05-07T10:04:01;8.82;;;4.45;;
29432;SDS011;16405;53.964;13.448;2023-05-07T10:06:33;11.25;;;4.40;;
29432;SDS011;16405;53.964;13.448;2023-05-07T10:09:06;13.13;;;4.03;;
29432;SDS011;16405;53.964;13.448;2023-05-07T10:11:42;13.18;;;4.10;;
29432;SDS011;16405;53.964;13.448;2023-05-07T10:14:12;10.65;;;4.30;;
29432;SDS011;16405;53.964;13.448;2023-05-07T10:16:39;6.80;;;3.92;;
29432;SDS011;16405;53.964;13.448;2023-05-07T10:19:09;8.52;;;3.97;;
29432;SDS011;16405;53.964;13.448;2023-05-07T10:21:51;12.18;;;4.60;;
29432;SDS011;16405;53.964;13.448;2023-05-07T10:24:31;10.20;;;4.30;;
29432;SDS011;16405;53.964;13.448;2023-05-07T10:27:08;8.00;;;3.63;;
29432;SDS011;16405;53.964;13.448;2023-05-07T10:29:53;9.18;;;4.13;;
29432;SDS011;16405;53.964;13.448;2023-05-07T10:32:39;7.70;;;3.60;;
29432;SDS011;16405;53.964;13.448;2023-05-07T10:35:30;6.80;;;3.22;;
29432;SDS011;16405;53.964;13.448;2023-05-07T10:38:10;8.18;;;3.40;;
29432;SDS011;16405;53.964;13.448;2023-05-07T10:40:40;5.28;;;2.50;;
29432;SDS011;16405;53.964;13.448;2023-05-07T10:43:12;12.35;;;3.80;;
29432;SDS011;16405;53.964;13.448;2023-05-07T10:51:36;10.57;;;3.60;;
29432;SDS011;16405;53.964;13.448;2023-05-07T10:56:46;6.07;;;3.10;;
29432;SDS011;16405;53.964;13.448;2023-05-07T11:01:58;8.90;;;3.38;;
29432;SDS011;16405;53.964;13.448;2023-05-07T11:04:29;5.40;;;3.03;;
29432;SDS011;16405;53.964;13.448;2023-05-07T11:10:01;7.07;;;3.17;;
29432;SDS011;16405;53.964;13.448;2023-05-07T11:15:10;6.78;;;3.10;;
29432;SDS011;16405;53.964;13.448;2023-05-07T11:18:01;9.88;;;3.05;;
29432;SDS011;16405;53.964;13.448;2023-05-07T11:20:48;6.18;;;2.85;;
29432;SDS011;16405;53.964;13.448;2023-05-07T11:24:02;6.88;;;2.78;;
29432;SDS011;16405;53.964;13.448;2023-05-07T11:26:16;8.98;;;2.85;;
29432;SDS011;16405;53.964;13.448;2023-05-07T11:28:45;9.18;;;2.63;;
29432;SDS011;16405;53.964;13.448;2023-05-07T11:31:11;4.50;;;2.80;;
29432;SDS011;16405;53.964;13.448;2023-05-07T11:33:48;6.32;;;2.60;;
29432;SDS011;16405;53.964;13.448;2023-05-07T11:36:15;10.00;;;2.80;;
29432;SDS011;16405;53.964;13.448;2023-05-07T11:38:47;6.95;;;3.00;;
29432;SDS011;16405;53.964;13.448;2023-05-07T11:41:19;5.43;;;2.88;;
29432;SDS011;16405;53.964;13.448;2023-05-07T11:43:58;6.15;;;2.60;;
29432;SDS011;16405;53.964;13.448;2023-05-07T11:46:27;4.72;;;2.40;;
29432;SDS011;16405;53.964;13.448;2023-05-07T11:48:54;7.53;;;2.70;;
29432;SDS011;16405;53.964;13.448;2023-05-07T11:51:25;7.18;;;2.35;;
29432;SDS011;16405;53.964;13.448;2023-05-07T11:53:52;10.20;;;2.70;;
29432;SDS011;16405;53.964;13.448;2023-05-07T11:56:18;9.20;;;2.53;;
29432;SDS011;16405;53.964;13.448;2023-05-07T11:58:45;4.03;;;2.17;;
29432;SDS011;16405;53.964;13.448;2023-05-07T12:01:19;4.93;;;2.60;;
29432;SDS011;16405;53.964;13.448;2023-05-07T12:03:45;7.50;;;2.72;;
29432;SDS011;16405;53.964;13.448;2023-05-07T12:06:12;4.40;;;2.03;;
29432;SDS011;16405;53.964;13.448;2023-05-07T12:08:41;7.45;;;2.35;;
29432;SDS011;16405;53.964;13.448;2023-05-07T12:11:15;8.65;;;2.58;;
29432;SDS011;16405;53.964;13.448;2023-05-07T12:13:48;5.35;;;2.92;;
29432;SDS011;16405;53.964;13.448;2023-05-07T12:16:14;7.03;;;2.38;;
29432;SDS011;16405;53.964;13.448;2023-05-07T12:18:40;4.57;;;2.70;;
29432;SDS011;16405;53.964;13.448;2023-05-07T12:21:07;8.20;;;2.65;;
29432;SDS011;16405;53.964;13.448;2023-05-07T12:23:34;4.65;;;2.45;;
29432;SDS011;16405;53.964;13.448;2023-05-07T12:26:04;7.07;;;2.50;;
29432;SDS011;16405;53.964;13.448;2023-05-07T12:28:31;6.18;;;3.10;;
29432;SDS011;16405;53.964;13.448;2023-05-07T12:31:05;7.90;;;3.00;;
29432;SDS011;16405;53.964;13.448;2023-05-07T12:33:31;9.05;;;2.50;;
29432;SDS011;16405;53.964;13.448;2023-05-07T12:35:58;9.45;;;3.05;;
29432;SDS011;16405;53.964;13.448;2023-05-07T12:38:32;6.90;;;3.00;;
29432;SDS011;16405;53.964;13.448;2023-05-07T12:41:03;7.97;;;2.70;;
29432;SDS011;16405;53.964;13.448;2023-05-07T12:43:32;6.80;;;3.13;;
29432;SDS011;16405;53.964;13.448;2023-05-07T12:46:03;5.72;;;2.03;;
29432;SDS011;16405;53.964;13.448;2023-05-07T12:48:31;7.68;;;2.60;;
29432;SDS011;16405;53.964;13.448;2023-05-07T12:50:58;8.65;;;2.97;;
29432;SDS011;16405;53.964;13.448;2023-05-07T12:53:26;6.70;;;2.53;;
29432;SDS011;16405;53.964;13.448;2023-05-07T12:55:57;5.03;;;2.67;;
29432;SDS011;16405;53.964;13.448;2023-05-07T13:00:58;6.68;;;2.88;;
29432;SDS011;16405;53.964;13.448;2023-05-07T13:03:30;4.82;;;2.90;;
29432;SDS011;16405;53.964;13.448;2023-05-07T13:06:06;8.45;;;2.50;;
29432;SDS011;16405;53.964;13.448;2023-05-07T13:08:36;5.93;;;2.70;;
29432;SDS011;16405;53.964;13.448;2023-05-07T13:11:11;7.07;;;2.70;;
29432;SDS011;16405;53.964;13.448;2023-05-07T13:13:38;3.80;;;2.30;;
29432;SDS011;16405;53.964;13.448;2023-05-07T13:16:07;5.63;;;3.00;;
29432;SDS011;16405;53.964;13.448;2023-05-07T13:18:35;5.35;;;2.45;;
29432;SDS011;16405;53.964;13.448;2023-05-07T13:21:01;5.47;;;2.67;;
29432;SDS011;16405;53.964;13.448;2023-05-07T13:23:27;6.55;;;2.58;;
29432;SDS011;16405;53.964;13.448;2023-05-07T13:25:53;6.65;;;2.78;;
29432;SDS011;16405;53.964;13.448;2023-05-07T13:28:20;9.35;;;2.50;;
29432;SDS011;16405;53.964;13.448;2023-05-07T13:30:47;6.07;;;2.70;;
29432;SDS011;16405;53.964;13.448;2023-05-07T13:33:16;9.52;;;2.80;;
29432;SDS011;16405;53.964;13.448;2023-05-07T13:35:43;7.10;;;2.08;;
29432;SDS011;16405;53.964;13.448;2023-05-07T13:38:09;7.40;;;2.33;;
29432;SDS011;16405;53.964;13.448;2023-05-07T13:40:35;4.85;;;2.50;;
29432;SDS011;16405;53.964;13.448;2023-05-07T13:43:01;6.03;;;2.35;;
29432;SDS011;16405;53.964;13.448;2023-05-07T13:45:31;5.57;;;2.70;;
29432;SDS011;16405;53.964;13.448;2023-05-07T13:47:57;6.78;;;2.50;;
29432;SDS011;16405;53.964;13.448;2023-05-07T13:50:23;7.18;;;2.92;;
29432;SDS011;16405;53.964;13.448;2023-05-07T13:52:51;7.28;;;2.90;;
29432;SDS011;16405;53.964;13.448;2023-05-07T13:55:20;5.88;;;2.92;;
29432;SDS011;16405;53.964;13.448;2023-05-07T13:57:58;6.88;;;2.40;;
29432;SDS011;16405;53.964;13.448;2023-05-07T14:00:29;6.22;;;2.90;;
29432;SDS011;16405;53.964;13.448;2023-05-07T14:02:55;5.43;;;2.67;;
29432;SDS011;16405;53.964;13.448;2023-05-07T14:05:22;7.60;;;3.30;;
29432;SDS011;16405;53.964;13.448;2023-05-07T14:07:49;9.73;;;2.60;;
29432;SDS011;16405;53.964;13.448;2023-05-07T14:10:23;6.55;;;2.70;;
29432;SDS011;16405;53.964;13.448;2023-05-07T14:12:50;6.45;;;3.00;;
29432;SDS011;16405;53.964;13.448;2023-05-07T14:15:16;7.38;;;2.38;;
29432;SDS011;16405;53.964;13.448;2023-05-07T14:17:45;5.45;;;3.00;;
29432;SDS011;16405;53.964;13.448;2023-05-07T14:20:12;6.10;;;2.90;;
29432;SDS011;16405;53.964;13.448;2023-05-07T14:22:38;5.40;;;2.58;;
29432;SDS011;16405;53.964;13.448;2023-05-07T14:25:04;5.88;;;2.55;;
29432;SDS011;16405;53.964;13.448;2023-05-07T14:27:31;4.75;;;2.42;;
29432;SDS011;16405;53.964;13.448;2023-05-07T14:29:57;7.22;;;2.92;;
29432;SDS011;16405;53.964;13.448;2023-05-07T14:32:23;5.30;;;2.53;;
29432;SDS011;16405;53.964;13.448;2023-05-07T14:34:57;5.72;;;2.80;;
29432;SDS011;16405;53.964;13.448;2023-05-07T14:37:23;8.65;;;2.70;;
29432;SDS011;16405;53.964;13.448;2023-05-07T14:39:49;4.95;;;2.92;;
29432;SDS011;16405;53.964;13.448;2023-05-07T14:42:15;5.50;;;2.35;;
29432;SDS011;16405;53.964;13.448;2023-05-07T14:44:41;3.50;;;2.30;;
29432;SDS011;16405;53.964;13.448;2023-05-07T14:47:10;2.92;;;2.10;;
29432;SDS011;16405;53.964;13.448;2023-05-07T14:49:36;7.60;;;2.53;;
29432;SDS011;16405;53.964;13.448;2023-05-07T14:52:02;3.78;;;2.13;;
29432;SDS011;16405;53.964;13.448;2023-05-07T14:54:29;3.65;;;2.30;;
29432;SDS011;16405;53.964;13.448;2023-05-07T14:56:57;6.97;;;2.83;;
29432;SDS011;16405;53.964;13.448;2023-05-07T14:59:25;4.30;;;2.10;;
29432;SDS011;16405;53.964;13.448;2023-05-07T15:01:52;8.40;;;2.70;;
29432;SDS011;16405;53.964;13.448;2023-05-07T15:04:17;10.50;;;3.13;;
29432;SDS011;16405;53.964;13.448;2023-05-07T15:06:43;9.82;;;3.03;;
29432;SDS011;16405;53.964;13.448;2023-05-07T15:09:09;5.30;;;2.20;;
29432;SDS011;16405;53.964;13.448;2023-05-07T15:11:35;11.25;;;2.83;;